createdAt,value
2018-09-27T00:02:23.325Z,12.10
2018-09-27T00:04:52.613Z,11.80
2018-09-27T00:07:21.857Z,11.80
2018-09-27T00:09:51.098Z,12.00
2018-09-27T00:12:20.957Z,11.90
2018-09-27T00:14:50.196Z,11.70
2018-09-27T00:17:19.445Z,11.70
2018-09-27T00:19:48.639Z,11.80
2018-09-27T00:22:17.871Z,11.80
2018-09-27T00:24:47.070Z,11.60
2018-09-27T00:27:16.246Z,11.80
2018-09-27T00:29:45.446Z,11.60
2018-09-27T00:32:14.650Z,11.80
2018-09-27T00:34:43.920Z,11.90
2018-09-27T00:37:13.121Z,11.90
2018-09-27T00:39:42.344Z,11.80
2018-09-27T00:42:11.549Z,11.90
2018-09-27T00:44:40.757Z,12.10
2018-09-27T00:47:10.019Z,12.10
2018-09-27T00:49:39.210Z,12.00
2018-09-27T00:52:08.289Z,11.90
2018-09-27T00:54:37.382Z,11.70
2018-09-27T00:57:06.487Z,11.60
2018-09-27T00:59:35.724Z,11.60
2018-09-27T01:02:04.793Z,11.70
2018-09-27T01:04:33.859Z,11.70
2018-09-27T01:07:02.932Z,11.80
2018-09-27T01:09:32.094Z,11.90
2018-09-27T01:12:01.194Z,12.00
2018-09-27T01:14:30.266Z,12.00
2018-09-27T01:16:59.410Z,12.00
2018-09-27T01:19:28.506Z,11.60
2018-09-27T01:21:57.614Z,11.60
2018-09-27T01:24:26.730Z,11.70
2018-09-27T01:26:55.819Z,11.70
2018-09-27T01:29:24.928Z,11.50
2018-09-27T01:31:54.665Z,11.60
2018-09-27T01:34:24.291Z,11.70
2018-09-27T01:36:53.345Z,11.80
2018-09-27T01:39:22.475Z,11.80
2018-09-27T01:41:51.570Z,11.90
2018-09-27T01:44:20.642Z,11.80
2018-09-27T01:46:49.750Z,11.70
2018-09-27T01:49:25.166Z,11.60
2018-09-27T01:51:54.230Z,11.60
2018-09-27T01:54:23.414Z,11.60
2018-09-27T01:56:52.478Z,11.70
2018-09-27T01:59:21.571Z,11.70
2018-09-27T02:01:50.656Z,11.80
2018-09-27T02:04:19.724Z,11.90
2018-09-27T02:06:48.806Z,11.90
2018-09-27T02:09:17.900Z,11.90
2018-09-27T02:11:46.973Z,11.90
2018-09-27T02:14:16.062Z,11.70
2018-09-27T02:16:45.203Z,11.40
2018-09-27T02:19:14.282Z,11.40
2018-09-27T02:21:43.351Z,11.60
2018-09-27T02:24:12.445Z,11.70
2018-09-27T02:26:41.538Z,11.90
2018-09-27T02:29:10.747Z,12.00
2018-09-27T02:31:39.861Z,11.90
2018-09-27T02:34:08.937Z,11.90
2018-09-27T02:36:38.045Z,11.90
2018-09-27T02:39:09.083Z,11.80
2018-09-27T02:41:38.451Z,11.80
2018-09-27T02:44:07.664Z,11.70
2018-09-27T02:46:36.778Z,11.60
2018-09-27T02:49:05.876Z,11.40
2018-09-27T02:51:35.001Z,11.40
2018-09-27T02:54:04.158Z,11.50
2018-09-27T02:56:33.261Z,11.50
2018-09-27T02:59:02.397Z,11.50
2018-09-27T03:01:31.634Z,11.40
2018-09-27T03:04:00.934Z,11.20
2018-09-27T03:06:30.590Z,11.30
2018-09-27T03:08:59.677Z,11.40
2018-09-27T03:11:28.799Z,11.40
2018-09-27T03:13:58.009Z,11.30
2018-09-27T03:16:27.020Z,11.40
2018-09-27T03:18:56.116Z,11.30
2018-09-27T03:21:25.186Z,11.00
2018-09-27T03:23:54.245Z,11.20
2018-09-27T03:26:23.336Z,11.30
2018-09-27T03:28:52.415Z,11.30
2018-09-27T03:31:21.494Z,11.30
2018-09-27T03:33:50.575Z,11.40
2018-09-27T03:36:19.642Z,11.40
2018-09-27T03:38:48.774Z,11.10
2018-09-27T03:41:17.854Z,11.30
2018-09-27T03:43:46.994Z,11.30
2018-09-27T03:46:16.124Z,11.10
2018-09-27T03:48:45.222Z,11.20
2018-09-27T03:51:14.358Z,11.10
2018-09-27T03:53:43.466Z,11.10
2018-09-27T03:56:12.557Z,11.10
2018-09-27T03:58:41.633Z,11.20
2018-09-27T04:01:10.785Z,10.90
2018-09-27T04:03:39.877Z,10.70
2018-09-27T04:06:08.982Z,10.60
2018-09-27T04:08:38.082Z,10.70
2018-09-27T04:11:07.257Z,10.90
2018-09-27T04:13:36.370Z,10.90
2018-09-27T04:16:05.546Z,10.80
2018-09-27T04:18:34.625Z,10.70
2018-09-27T04:21:03.737Z,10.70
2018-09-27T04:23:32.846Z,10.50
2018-09-27T04:26:01.905Z,10.50
2018-09-27T04:28:30.998Z,10.40
2018-09-27T04:31:00.048Z,10.60
2018-09-27T04:33:29.125Z,10.80
2018-09-27T04:35:58.210Z,10.90
2018-09-27T04:38:27.285Z,11.10
2018-09-27T04:40:56.388Z,11.10
2018-09-27T04:43:25.497Z,11.10
2018-09-27T04:45:54.627Z,10.90
2018-09-27T04:48:23.670Z,11.00
2018-09-27T04:50:52.734Z,11.00
2018-09-27T04:53:21.844Z,11.10
2018-09-27T04:55:50.956Z,10.90
2018-09-27T04:58:20.045Z,10.90
2018-09-27T05:00:49.588Z,11.00
2018-09-27T05:03:18.690Z,10.90
2018-09-27T05:05:47.781Z,11.00
2018-09-27T05:08:16.857Z,10.90
2018-09-27T05:10:45.977Z,11.00
2018-09-27T05:13:15.104Z,11.00
2018-09-27T05:15:44.247Z,10.90
2018-09-27T05:18:13.328Z,11.00
2018-09-27T05:20:42.439Z,11.00
2018-09-27T05:23:11.513Z,11.10
2018-09-27T05:25:40.609Z,11.00
2018-09-27T05:28:09.806Z,11.10
2018-09-27T05:30:38.910Z,11.10
2018-09-27T05:33:08.065Z,11.10
2018-09-27T05:35:37.154Z,11.10
2018-09-27T05:38:06.349Z,11.00
2018-09-27T05:40:35.410Z,11.10
2018-09-27T05:43:04.511Z,11.20
2018-09-27T05:45:33.648Z,11.20
2018-09-27T05:48:02.725Z,11.20
2018-09-27T05:50:31.846Z,11.20
2018-09-27T05:53:00.950Z,11.30
2018-09-27T05:55:30.036Z,11.20
2018-09-27T05:57:59.114Z,11.30
2018-09-27T06:00:28.257Z,11.30
2018-09-27T06:02:57.352Z,11.20
2018-09-27T06:05:26.442Z,11.30
2018-09-27T06:07:55.530Z,11.30
2018-09-27T06:10:24.623Z,11.10
2018-09-27T06:12:53.703Z,11.10
2018-09-27T06:15:22.843Z,11.10
2018-09-27T06:17:51.893Z,11.20
2018-09-27T06:20:21.006Z,11.20
2018-09-27T06:22:50.104Z,11.10
2018-09-27T06:25:19.219Z,11.20
2018-09-27T06:27:48.411Z,11.20
2018-09-27T06:30:17.706Z,11.30
2018-09-27T06:32:46.798Z,11.40
2018-09-27T06:35:15.894Z,11.40
2018-09-27T06:37:44.997Z,11.50
2018-09-27T06:40:14.098Z,11.50
2018-09-27T06:42:43.222Z,11.50
2018-09-27T06:45:12.283Z,11.50
2018-09-27T06:47:41.363Z,11.50
2018-09-27T06:50:10.640Z,11.60
2018-09-27T06:52:39.758Z,11.50
2018-09-27T06:55:09.104Z,11.30
2018-09-27T06:57:38.038Z,11.20
2018-09-27T07:00:07.834Z,11.40
2018-09-27T07:02:36.955Z,11.70
2018-09-27T07:05:06.168Z,11.90
2018-09-27T07:07:35.251Z,12.00
2018-09-27T07:10:04.573Z,12.00
2018-09-27T07:12:33.716Z,12.10
2018-09-27T07:15:02.782Z,12.10
2018-09-27T07:17:31.834Z,12.10
2018-09-27T07:20:00.955Z,12.10
2018-09-27T07:22:30.034Z,12.20
2018-09-27T07:24:59.149Z,12.30
2018-09-27T07:27:28.221Z,12.10
2018-09-27T07:29:57.334Z,12.30
2018-09-27T07:32:26.465Z,12.40
2018-09-27T07:34:55.515Z,12.50
2018-09-27T07:37:25.170Z,12.50
2018-09-27T07:39:54.283Z,12.50
2018-09-27T07:42:23.367Z,12.60
2018-09-27T07:44:52.569Z,12.60
2018-09-27T07:47:21.682Z,12.60
2018-09-27T07:49:50.762Z,12.70
2018-09-27T07:52:19.882Z,12.70
2018-09-27T07:54:49.087Z,12.80
2018-09-27T07:57:18.178Z,12.80
2018-09-27T07:59:47.269Z,12.90
2018-09-27T08:02:16.394Z,12.90
2018-09-27T08:04:45.685Z,12.90
2018-09-27T08:07:14.766Z,13.10
2018-09-27T08:09:44.146Z,13.20
2018-09-27T08:12:13.352Z,13.30
2018-09-27T08:14:42.642Z,13.40
2018-09-27T08:17:11.681Z,13.40
2018-09-27T08:19:40.704Z,13.50
2018-09-27T08:22:09.797Z,13.60
2018-09-27T08:24:38.918Z,13.70
2018-09-27T08:27:08.072Z,13.70
2018-09-27T08:29:37.194Z,13.80
2018-09-27T08:32:06.468Z,13.90
2018-09-27T08:34:35.554Z,14.10
2018-09-27T08:37:04.659Z,14.10
2018-09-27T08:39:33.718Z,14.30
2018-09-27T08:42:02.835Z,14.50
2018-09-27T08:44:31.976Z,14.70
2018-09-27T08:47:01.097Z,14.80
2018-09-27T08:49:30.225Z,15.00
2018-09-27T08:51:59.444Z,15.20
2018-09-27T08:54:28.617Z,15.40
2018-09-27T08:56:57.815Z,15.60
2018-09-27T08:59:26.946Z,15.80
2018-09-27T09:01:56.110Z,16.00
2018-09-27T09:04:25.233Z,16.10
2018-09-27T09:06:54.366Z,16.20
2018-09-27T09:09:23.516Z,16.30
2018-09-27T09:11:52.670Z,16.40
2018-09-27T09:14:21.839Z,16.50
2018-09-27T09:16:51.374Z,16.50
2018-09-27T09:19:20.618Z,16.50
2018-09-27T09:21:49.760Z,16.60
2018-09-27T09:24:19.045Z,16.60
2018-09-27T09:26:48.183Z,16.70
2018-09-27T09:29:17.442Z,16.70
2018-09-27T09:31:46.515Z,16.70
2018-09-27T09:34:15.689Z,16.80
2018-09-27T09:36:44.810Z,16.90
2018-09-27T09:39:13.923Z,17.00
2018-09-27T09:41:43.066Z,17.00
2018-09-27T09:44:12.174Z,17.10
2018-09-27T09:46:41.350Z,17.20
2018-09-27T09:49:10.529Z,17.20
2018-09-27T09:51:39.842Z,17.30
2018-09-27T09:54:08.954Z,17.40
2018-09-27T09:56:38.082Z,17.40
2018-09-27T09:59:07.474Z,17.50
2018-09-27T10:01:36.598Z,17.60
2018-09-27T10:04:05.919Z,17.80
2018-09-27T10:06:35.011Z,17.80
2018-09-27T10:09:05.547Z,18.00
2018-09-27T10:11:34.629Z,17.90
2018-09-27T10:14:03.748Z,18.00
2018-09-27T10:16:33.114Z,18.00
2018-09-27T10:19:02.213Z,18.10
2018-09-27T10:21:31.360Z,18.20
2018-09-27T10:24:00.650Z,18.30
2018-09-27T10:26:29.821Z,18.30
2018-09-27T10:28:58.933Z,18.30
2018-09-27T10:31:28.082Z,18.40
2018-09-27T10:33:57.200Z,18.40
2018-09-27T10:36:26.421Z,18.50
2018-09-27T10:38:55.587Z,18.60
2018-09-27T10:41:24.730Z,18.70
2018-09-27T10:43:53.887Z,18.70
2018-09-27T10:46:23.037Z,18.80
2018-09-27T10:48:52.200Z,18.80
2018-09-27T10:51:21.376Z,18.90
2018-09-27T10:53:50.590Z,19.10
2018-09-27T10:56:19.818Z,19.20
2018-09-27T10:58:48.963Z,19.30
2018-09-27T11:01:18.156Z,19.40
2018-09-27T11:03:47.341Z,19.40
2018-09-27T11:06:16.497Z,19.50
2018-09-27T11:08:45.714Z,19.50
2018-09-27T11:11:15.003Z,19.50
2018-09-27T11:13:44.131Z,19.60
2018-09-27T11:16:13.378Z,19.60
2018-09-27T11:18:42.586Z,19.70
2018-09-27T11:21:11.732Z,19.70
2018-09-27T11:23:40.894Z,19.80
2018-09-27T11:26:10.100Z,19.80
2018-09-27T11:28:44.632Z,19.90
2018-09-27T11:31:19.115Z,19.90
2018-09-27T11:33:48.235Z,20.00
2018-09-27T11:36:17.530Z,20.10
2018-09-27T11:38:46.780Z,20.20
2018-09-27T11:41:15.891Z,20.40
2018-09-27T11:43:45.519Z,20.60
2018-09-27T11:46:14.656Z,20.60
2018-09-27T11:48:43.833Z,20.70
2018-09-27T11:51:13.029Z,20.80
2018-09-27T11:53:42.211Z,20.70
2018-09-27T11:56:11.440Z,20.80
2018-09-27T11:58:40.577Z,20.80
2018-09-27T12:01:09.819Z,21.00
2018-09-27T12:03:39.405Z,21.00
2018-09-27T12:06:08.576Z,21.00
2018-09-27T12:08:37.731Z,21.10
2018-09-27T12:11:06.881Z,21.20
2018-09-27T12:13:36.789Z,21.30
2018-09-27T12:16:05.950Z,21.40
2018-09-27T12:18:35.125Z,21.40
2018-09-27T12:21:04.309Z,21.40
2018-09-27T12:23:33.522Z,21.40
2018-09-27T12:26:02.663Z,21.50
2018-09-27T12:28:32.096Z,21.60
2018-09-27T12:31:01.416Z,21.70
2018-09-27T12:33:30.726Z,21.90
2018-09-27T12:35:59.898Z,21.90
2018-09-27T12:38:29.154Z,21.70
2018-09-27T12:40:58.211Z,21.70
2018-09-27T12:43:27.421Z,21.90
2018-09-27T12:45:56.611Z,22.10
2018-09-27T12:48:25.803Z,22.20
2018-09-27T12:50:54.921Z,22.10
2018-09-27T12:53:24.081Z,22.30
2018-09-27T12:55:53.325Z,22.20
2018-09-27T12:58:22.444Z,22.20
2018-09-27T13:00:51.631Z,22.20
2018-09-27T13:03:20.877Z,22.30
2018-09-27T13:05:50.063Z,22.40
2018-09-27T13:08:19.259Z,22.40
2018-09-27T13:10:48.464Z,22.40
2018-09-27T13:13:17.823Z,22.40
2018-09-27T13:15:46.974Z,22.40
2018-09-27T13:18:19.137Z,22.40
2018-09-27T13:20:48.372Z,22.50
2018-09-27T13:23:17.649Z,22.60
2018-09-27T13:25:47.005Z,22.60
2018-09-27T13:28:16.230Z,22.50
2018-09-27T13:30:45.418Z,22.50
2018-09-27T13:33:14.636Z,22.50
2018-09-27T13:35:43.884Z,22.50
2018-09-27T13:38:13.104Z,22.50
2018-09-27T13:40:42.343Z,22.40
2018-09-27T13:43:11.601Z,22.40
2018-09-27T13:45:40.875Z,22.40
2018-09-27T13:48:10.167Z,22.40
2018-09-27T13:50:39.363Z,22.50
2018-09-27T13:53:08.590Z,22.50
2018-09-27T13:55:37.857Z,22.40
2018-09-27T13:58:07.050Z,22.40
2018-09-27T14:00:36.300Z,22.40
2018-09-27T14:03:05.673Z,22.40
2018-09-27T14:05:34.914Z,22.50
2018-09-27T14:08:04.111Z,22.50
2018-09-27T14:10:33.263Z,22.50
2018-09-27T14:13:02.455Z,22.40
2018-09-27T14:15:31.690Z,22.40
2018-09-27T14:18:00.847Z,22.40
2018-09-27T14:20:30.099Z,22.40
2018-09-27T14:22:59.286Z,22.30
2018-09-27T14:25:28.588Z,22.30
2018-09-27T14:27:57.870Z,22.20
2018-09-27T14:30:27.121Z,22.20
2018-09-27T14:32:56.323Z,22.20
2018-09-27T14:35:25.573Z,22.10
2018-09-27T14:37:54.754Z,22.20
2018-09-27T14:40:23.915Z,22.20
2018-09-27T14:42:53.090Z,22.20
2018-09-27T14:45:22.259Z,22.20
2018-09-27T14:47:51.619Z,22.20
2018-09-27T14:50:20.789Z,22.20
2018-09-27T14:52:49.887Z,22.20
2018-09-27T14:55:19.255Z,22.20
2018-09-27T14:57:48.424Z,22.10
2018-09-27T15:00:17.611Z,22.00
2018-09-27T15:02:46.771Z,22.10
2018-09-27T15:05:15.959Z,22.00
2018-09-27T15:07:45.407Z,22.10
2018-09-27T15:10:14.592Z,22.00
2018-09-27T15:12:43.796Z,21.90
2018-09-27T15:15:12.933Z,21.90
2018-09-27T15:17:42.171Z,21.90
2018-09-27T15:20:11.329Z,21.90
2018-09-27T15:22:40.600Z,21.80
2018-09-27T15:25:09.913Z,21.80
2018-09-27T15:27:39.350Z,21.80
2018-09-27T15:30:08.541Z,21.80
2018-09-27T15:32:37.793Z,21.70
2018-09-27T15:35:06.998Z,21.70
2018-09-27T15:37:36.302Z,21.70
2018-09-27T15:40:05.718Z,21.70
2018-09-27T15:42:34.762Z,21.70
2018-09-27T15:45:04.000Z,21.70
2018-09-27T15:47:33.186Z,21.60
2018-09-27T15:50:02.347Z,21.60
2018-09-27T15:52:32.668Z,21.60
2018-09-27T15:55:01.815Z,21.70
2018-09-27T15:57:31.085Z,21.60
2018-09-27T16:00:00.384Z,21.60
2018-09-27T16:02:29.563Z,21.50
2018-09-27T16:04:58.798Z,21.40
2018-09-27T16:07:28.032Z,21.40
2018-09-27T16:09:57.224Z,21.30
2018-09-27T16:12:26.490Z,21.30
2018-09-27T16:14:56.016Z,21.20
2018-09-27T16:17:25.025Z,21.20
2018-09-27T16:19:54.272Z,21.20
2018-09-27T16:22:23.491Z,21.20
2018-09-27T16:24:52.847Z,21.10
2018-09-27T16:27:22.023Z,21.00
2018-09-27T16:29:51.307Z,21.00
2018-09-27T16:32:20.515Z,20.90
2018-09-27T16:34:50.096Z,20.80
2018-09-27T16:37:19.394Z,20.80
2018-09-27T16:39:48.624Z,20.70
2018-09-27T16:42:17.880Z,20.70
2018-09-27T16:44:47.212Z,20.60
2018-09-27T16:47:16.491Z,20.50
2018-09-27T16:49:45.816Z,20.40
2018-09-27T16:52:15.677Z,20.40
2018-09-27T16:54:45.413Z,20.30
2018-09-27T16:57:14.599Z,20.20
2018-09-27T16:59:43.936Z,20.10
2018-09-27T17:02:12.926Z,20.00
2018-09-27T17:04:42.078Z,20.00
2018-09-27T17:07:11.251Z,19.90
2018-09-27T17:09:40.441Z,19.80
2018-09-27T17:12:09.622Z,19.70
2018-09-27T17:14:38.866Z,19.70
2018-09-27T17:17:08.099Z,19.60
2018-09-27T17:19:37.259Z,19.50
2018-09-27T17:22:06.485Z,19.40
2018-09-27T17:24:35.689Z,19.40
2018-09-27T17:27:04.863Z,19.30
2018-09-27T17:29:34.176Z,19.30
2018-09-27T17:32:03.308Z,19.20
2018-09-27T17:34:32.511Z,19.20
2018-09-27T17:37:02.010Z,19.10
2018-09-27T17:39:31.168Z,19.00
2018-09-27T17:42:00.342Z,18.90
2018-09-27T17:44:29.486Z,18.90
2018-09-27T17:46:58.628Z,18.80
2018-09-27T17:49:27.801Z,18.80
2018-09-27T17:51:57.028Z,18.70
2018-09-27T17:54:26.194Z,18.70
2018-09-27T17:56:55.343Z,18.60
2018-09-27T17:59:24.581Z,18.50
2018-09-27T18:01:53.826Z,18.50
2018-09-27T18:04:23.070Z,18.40
2018-09-27T18:06:52.416Z,18.30
2018-09-27T18:09:21.797Z,18.30
2018-09-27T18:11:51.027Z,18.20
2018-09-27T18:14:20.283Z,18.10
2018-09-27T18:16:50.824Z,18.10
2018-09-27T18:19:20.259Z,18.10
2018-09-27T18:21:49.532Z,18.00
2018-09-27T18:24:18.841Z,17.90
2018-09-27T18:26:48.140Z,17.80
2018-09-27T18:29:18.725Z,17.80
2018-09-27T18:31:48.700Z,17.80
2018-09-27T18:34:17.903Z,17.80
2018-09-27T18:36:49.510Z,17.70
2018-09-27T18:39:18.677Z,17.80
2018-09-27T18:41:47.833Z,17.80
2018-09-27T18:44:16.970Z,17.80
2018-09-27T18:46:46.178Z,17.80
2018-09-27T18:49:15.389Z,17.70
2018-09-27T18:51:44.599Z,17.60
2018-09-27T18:54:13.886Z,17.50
2018-09-27T18:56:43.074Z,17.40
2018-09-27T18:59:12.568Z,17.30
2018-09-27T19:01:41.754Z,17.20
2018-09-27T19:04:10.920Z,17.20
2018-09-27T19:06:40.103Z,17.20
2018-09-27T19:09:09.310Z,17.20
2018-09-27T19:11:38.566Z,17.10
2018-09-27T19:14:07.752Z,17.10
2018-09-27T19:16:36.965Z,17.10
2018-09-27T19:19:06.190Z,17.20
2018-09-27T19:21:35.372Z,17.20
2018-09-27T19:24:04.504Z,17.10
2018-09-27T19:26:33.682Z,17.10
2018-09-27T19:29:02.901Z,17.10
2018-09-27T19:31:32.220Z,17.10
2018-09-27T19:34:01.396Z,17.00
2018-09-27T19:36:30.635Z,17.00
2018-09-27T19:38:59.894Z,17.00
2018-09-27T19:41:29.115Z,17.00
2018-09-27T19:43:58.344Z,16.90
2018-09-27T19:46:27.569Z,16.70
2018-09-27T19:48:56.924Z,16.60
2018-09-27T19:51:26.076Z,16.50
2018-09-27T19:53:55.406Z,16.50
2018-09-27T19:56:24.945Z,16.50
2018-09-27T19:58:54.178Z,16.50
2018-09-27T20:01:23.334Z,16.40
2018-09-27T20:03:52.491Z,16.50
2018-09-27T20:06:21.682Z,16.50
2018-09-27T20:08:50.873Z,16.30
2018-09-27T20:11:20.096Z,16.40
2018-09-27T20:13:49.234Z,16.30
2018-09-27T20:16:18.575Z,16.30
2018-09-27T20:18:47.601Z,16.30
2018-09-27T20:21:16.774Z,16.30
2018-09-27T20:23:46.256Z,16.20
2018-09-27T20:26:16.237Z,16.20
2018-09-27T20:28:45.362Z,16.20
2018-09-27T20:31:14.573Z,16.20
2018-09-27T20:33:43.729Z,16.20
2018-09-27T20:36:13.555Z,16.20
2018-09-27T20:38:42.729Z,16.10
2018-09-27T20:41:11.927Z,16.20
2018-09-27T20:43:41.125Z,16.20
2018-09-27T20:46:10.384Z,16.20
2018-09-27T20:48:39.701Z,16.30
2018-09-27T20:51:08.892Z,16.40
2018-09-27T20:53:38.045Z,16.40
2018-09-27T20:56:07.273Z,16.40
2018-09-27T20:58:36.477Z,16.20
2018-09-27T21:01:05.673Z,16.10
2018-09-27T21:03:34.917Z,16.10
2018-09-27T21:06:04.064Z,16.20
2018-09-27T21:08:33.194Z,16.10
2018-09-27T21:11:02.338Z,16.10
2018-09-27T21:13:31.587Z,16.00
2018-09-27T21:16:00.840Z,16.10
2018-09-27T21:18:29.937Z,16.10
2018-09-27T21:20:59.335Z,16.10
2018-09-27T21:23:28.790Z,16.20
2018-09-27T21:25:57.967Z,16.10
2018-09-27T21:28:27.929Z,16.20
2018-09-27T21:30:57.185Z,16.10
2018-09-27T21:33:26.348Z,16.00
2018-09-27T21:35:55.705Z,15.90
2018-09-27T21:38:24.830Z,16.00
2018-09-27T21:40:54.171Z,16.00
2018-09-27T21:43:23.958Z,16.00
2018-09-27T21:45:53.144Z,16.00
2018-09-27T21:48:22.461Z,15.90
2018-09-27T21:50:51.828Z,15.90
2018-09-27T21:53:21.224Z,15.90
2018-09-27T21:55:50.511Z,15.80
2018-09-27T21:58:19.960Z,15.80
2018-09-27T22:00:52.148Z,15.90
2018-09-27T22:03:23.564Z,15.80
2018-09-27T22:05:53.413Z,15.70
2018-09-27T22:08:22.683Z,15.70
2018-09-27T22:10:51.991Z,15.50
2018-09-27T22:13:21.295Z,15.50
2018-09-27T22:15:50.595Z,15.30
2018-09-27T22:18:19.951Z,15.30
2018-09-27T22:20:49.355Z,15.30
2018-09-27T22:23:18.705Z,15.20
2018-09-27T22:25:47.989Z,15.30
2018-09-27T22:28:17.328Z,15.30
2018-09-27T22:30:46.702Z,15.20
2018-09-27T22:33:16.101Z,15.20
2018-09-27T22:35:45.469Z,15.30
2018-09-27T22:38:14.889Z,15.20
2018-09-27T22:40:44.352Z,15.20
2018-09-27T22:43:13.745Z,15.10
2018-09-27T22:45:43.711Z,15.20
2018-09-27T22:48:13.091Z,15.10
2018-09-27T22:50:42.378Z,15.20
2018-09-27T22:53:11.759Z,15.20
2018-09-27T22:55:40.902Z,15.30
2018-09-27T22:58:10.054Z,15.20
2018-09-27T23:00:39.265Z,15.30
2018-09-27T23:03:08.382Z,15.30
2018-09-27T23:05:37.514Z,15.20
2018-09-27T23:08:06.722Z,15.30
2018-09-27T23:10:36.415Z,15.30
2018-09-27T23:13:05.536Z,15.10
2018-09-27T23:15:34.635Z,15.00
2018-09-27T23:18:03.776Z,15.00
2018-09-27T23:20:32.933Z,15.10
2018-09-27T23:23:02.141Z,15.10
2018-09-27T23:25:31.352Z,15.10
2018-09-27T23:28:00.634Z,15.00
2018-09-27T23:30:29.743Z,15.00
2018-09-27T23:32:58.859Z,14.90
2018-09-27T23:35:28.019Z,15.00
2018-09-27T23:37:57.189Z,15.10
2018-09-27T23:40:26.294Z,15.00
2018-09-27T23:42:55.504Z,15.10
2018-09-27T23:45:24.640Z,14.90
2018-09-27T23:47:53.778Z,14.90
2018-09-27T23:50:23.849Z,14.90
2018-09-27T23:52:52.987Z,15.00
2018-09-27T23:55:22.142Z,15.10
2018-09-27T23:57:51.245Z,15.00
